Time;durP1;ratioP1;P1;durP2;ratioP2;P2;SDS_P1;SDS_P2;PMS_P1;PMS_P2;Temp;Humidity;BMP_temperature;BMP_pressure;BME280_temperature;BME280_humidity;BME280_pressure;Samples;Min_cycle;Max_cycle;Signal;HPM_P1;HPM_P2
2022/11/07 00:01:17;;;;;;;65.60;62.40;;;9.80;99.90;;;;;;5002082;28;20204;-78
2022/11/07 00:03:43;;;;;;;54.53;51.83;;;9.80;99.90;;;;;;4995011;28;20200;-78
2022/11/07 00:06:09;;;;;;;58.90;56.07;;;9.80;99.90;;;;;;4999648;28;20185;-79
2022/11/07 00:08:35;;;;;;;83.33;79.33;;;9.80;99.90;;;;;;4998273;28;20211;-78
2022/11/07 00:11:01;;;;;;;85.10;81.00;;;9.80;99.90;;;;;;4998816;28;20181;-78
2022/11/07 00:13:28;;;;;;;93.90;89.40;;;9.80;99.90;;;;;;4998909;28;20187;-78
2022/11/07 00:16:00;;;;;;;96.33;91.40;;;9.80;99.90;;;;;;5002526;28;20652;-78
2022/11/07 00:18:26;;;;;;;95.47;90.83;;;9.70;99.90;;;;;;5000659;28;20234;-79
2022/11/07 00:20:52;;;;;;;85.87;81.57;;;9.70;99.90;;;;;;5001889;28;20180;-79
2022/11/07 00:23:18;;;;;;;50.10;47.67;;;9.80;99.90;;;;;;5000807;28;20185;-79
2022/11/07 00:25:44;;;;;;;44.13;42.03;;;9.90;99.90;;;;;;4996052;28;20177;-78
2022/11/07 00:28:09;;;;;;;35.50;33.77;;;10.00;99.90;;;;;;4978804;28;20213;-79
2022/11/07 00:30:35;;;;;;;26.80;25.40;;;10.10;99.90;;;;;;4979525;28;20177;-78
2022/11/07 00:33:01;;;;;;;29.13;27.63;;;10.10;99.90;;;;;;4983723;28;20228;-79
2022/11/07 00:35:27;;;;;;;29.73;28.23;;;10.20;99.90;;;;;;4982868;28;20193;-78
2022/11/07 00:37:54;;;;;;;27.83;26.53;;;10.30;99.90;;;;;;4983835;28;20231;-78
2022/11/07 00:40:20;;;;;;;31.93;30.27;;;10.30;99.90;;;;;;4992546;28;20181;-78
2022/11/07 00:42:46;;;;;;;29.70;28.20;;;10.30;99.90;;;;;;5000167;28;20185;-79
2022/11/07 00:45:12;;;;;;;27.63;26.13;;;10.30;99.90;;;;;;5001229;28;20195;-79
2022/11/07 00:47:39;;;;;;;21.97;20.97;;;10.30;99.90;;;;;;5003367;28;20219;-78
2022/11/07 00:50:05;;;;;;;20.57;19.63;;;10.20;99.90;;;;;;5003145;28;20188;-78
2022/11/07 00:52:31;;;;;;;21.53;20.47;;;10.10;99.90;;;;;;5001950;28;20231;-77
2022/11/07 00:54:57;;;;;;;21.80;20.67;;;10.10;99.90;;;;;;5004689;28;20178;-76
2022/11/07 00:57:23;;;;;;;17.30;16.30;;;10.00;99.90;;;;;;4986869;28;20589;-77
2022/11/07 00:59:49;;;;;;;16.23;15.43;;;10.00;99.90;;;;;;4985787;28;20193;-78
2022/11/07 01:02:15;;;;;;;4.77;4.57;;;10.10;99.90;;;;;;4985640;28;20200;-78
2022/11/07 01:07:25;;;;;;;5.70;5.40;;;10.20;99.90;;;;;;4984140;28;20204;-77
2022/11/07 01:09:50;;;;;;;6.87;6.47;;;10.20;99.90;;;;;;4986383;28;20207;-77
2022/11/07 01:12:16;;;;;;;5.40;5.10;;;10.20;99.90;;;;;;4999078;28;20283;-77
2022/11/07 01:14:42;;;;;;;6.17;5.83;;;10.30;99.90;;;;;;4998622;28;20215;-77
2022/11/07 01:17:08;;;;;;;4.67;4.47;;;10.40;99.90;;;;;;4996269;28;20196;-78
2022/11/07 01:19:33;;;;;;;4.93;4.63;;;10.40;99.90;;;;;;4998828;28;20701;-77
2022/11/07 01:21:59;;;;;;;5.20;4.83;;;10.50;99.90;;;;;;4999432;28;20192;-78
2022/11/07 01:24:25;;;;;;;6.37;5.80;;;10.60;99.90;;;;;;4993808;28;20835;-78
2022/11/07 01:26:51;;;;;;;5.80;5.50;;;10.70;99.90;;;;;;4996612;28;20192;-78
2022/11/07 01:29:18;;;;;;;5.63;5.33;;;10.70;99.90;;;;;;4999272;28;20184;-78
2022/11/07 01:31:45;;;;;;;6.93;6.63;;;10.70;99.90;;;;;;5000900;28;20768;-77
2022/11/07 01:34:10;;;;;;;5.00;4.77;;;10.70;99.90;;;;;;4988192;28;20238;-77
2022/11/07 01:36:36;;;;;;;5.20;4.70;;;10.60;99.90;;;;;;4981377;28;20185;-77
2022/11/07 01:39:03;;;;;;;4.90;4.70;;;10.50;99.90;;;;;;4978712;28;20616;-78
2022/11/07 01:41:32;;;;;;;6.17;5.97;;;10.40;99.90;;;;;;4979527;28;20192;-78
2022/11/07 01:44:07;;;;;;;9.63;9.23;;;10.40;99.90;;;;;;4981700;28;20181;-77
2022/11/07 01:46:41;;;;;;;13.37;12.77;;;10.40;99.90;;;;;;4982965;28;20866;-78
2022/11/07 01:49:21;;;;;;;12.43;11.73;;;10.30;99.90;;;;;;4989284;28;20184;-77
2022/11/07 01:51:59;;;;;;;28.73;27.40;;;10.20;99.90;;;;;;4980286;28;20212;-78
2022/11/07 01:54:33;;;;;;;39.73;37.83;;;10.20;99.90;;;;;;4982109;28;20197;-79
2022/11/07 01:57:05;;;;;;;72.33;68.77;;;10.20;99.90;;;;;;4980582;28;20209;-77
2022/11/07 01:59:33;;;;;;;71.87;68.33;;;10.30;99.90;;;;;;4983976;28;20184;-78
2022/11/07 02:01:59;;;;;;;75.20;71.60;;;10.30;99.90;;;;;;4993400;28;20192;-78
2022/11/07 02:04:28;;;;;;;75.30;71.73;;;10.30;99.90;;;;;;5007734;28;20184;-77
2022/11/07 02:06:57;;;;;;;75.30;71.70;;;10.30;99.90;;;;;;5007842;28;20184;-78
2022/11/07 02:09:23;;;;;;;74.10;70.50;;;10.20;99.90;;;;;;5008640;28;20191;-78
2022/11/07 02:11:49;;;;;;;77.57;73.87;;;10.20;99.90;;;;;;5005142;28;20252;-77
2022/11/07 02:14:15;;;;;;;84.83;80.73;;;10.20;99.90;;;;;;5000858;28;20184;-78
2022/11/07 02:16:42;;;;;;;78.07;74.27;;;10.20;99.90;;;;;;4995085;28;20181;-78
2022/11/07 02:19:30;;;;;;;65.80;62.57;;;10.30;99.90;;;;;;5002004;28;20211;-78
2022/11/07 02:22:26;;;;;;;48.97;46.60;;;10.30;99.90;;;;;;4988999;28;20265;-78
2022/11/07 02:24:56;;;;;;;56.63;53.80;;;10.30;99.90;;;;;;4985684;28;20185;-78
2022/11/07 02:27:25;;;;;;;31.90;30.43;;;10.40;99.90;;;;;;4987383;28;20205;-77
2022/11/07 02:29:57;;;;;;;15.60;14.57;;;10.40;99.90;;;;;;4996641;28;20229;-78
2022/11/07 02:32:23;;;;;;;8.57;8.17;;;10.50;99.90;;;;;;5004683;28;20208;-79
2022/11/07 02:35:03;;;;;;;10.87;10.17;;;10.50;99.90;;;;;;5005773;28;20248;-77
2022/11/07 02:37:36;;;;;;;13.27;12.57;;;10.60;99.90;;;;;;5007799;28;20233;-79
2022/11/07 02:40:06;;;;;;;15.50;14.53;;;10.60;99.90;;;;;;5008172;28;20176;-78
2022/11/07 02:42:43;;;;;;;15.17;14.47;;;10.60;99.90;;;;;;5005237;28;20181;-78
2022/11/07 02:45:15;;;;;;;15.50;14.60;;;10.60;99.90;;;;;;4985874;28;20195;-79
2022/11/07 02:47:41;;;;;;;15.50;14.73;;;10.60;99.90;;;;;;4986199;28;20401;-78
2022/11/07 02:50:12;;;;;;;10.33;9.93;;;10.60;99.90;;;;;;4984640;28;20540;-78
2022/11/07 02:52:38;;;;;;;13.67;13.07;;;10.60;99.90;;;;;;4985301;28;20212;-78
2022/11/07 02:55:05;;;;;;;13.03;12.37;;;10.70;99.90;;;;;;4984766;28;20199;-77
2022/11/07 02:57:31;;;;;;;8.53;8.13;;;10.70;99.90;;;;;;4980685;28;20239;-78
2022/11/07 02:59:57;;;;;;;5.50;5.13;;;10.70;99.90;;;;;;4982078;28;20182;-78
2022/11/07 03:02:23;;;;;;;5.40;5.00;;;10.80;99.90;;;;;;4982465;28;20252;-79
2022/11/07 03:04:50;;;;;;;4.63;4.43;;;10.80;99.90;;;;;;4995439;28;20236;-78
2022/11/07 03:07:16;;;;;;;6.87;6.53;;;10.90;99.90;;;;;;5001638;28;20254;-78
2022/11/07 03:09:42;;;;;;;8.43;8.03;;;10.90;99.90;;;;;;5000731;28;20184;-78
2022/11/07 03:12:07;;;;;;;11.83;11.33;;;10.90;99.90;;;;;;4981516;28;20239;-78
2022/11/07 03:14:33;;;;;;;15.57;14.87;;;10.90;99.90;;;;;;4979674;28;20703;-78
2022/11/07 03:16:59;;;;;;;19.10;18.20;;;11.00;99.90;;;;;;4981267;28;20291;-77
2022/11/07 03:19:25;;;;;;;19.73;18.73;;;11.00;99.90;;;;;;4982468;28;20181;-77
2022/11/07 03:21:51;;;;;;;16.73;15.97;;;11.10;99.90;;;;;;4983749;28;20280;-78
2022/11/07 03:24:17;;;;;;;15.50;14.67;;;11.10;99.90;;;;;;4986715;28;20210;-78
2022/11/07 03:26:43;;;;;;;14.83;14.10;;;11.20;99.90;;;;;;5003179;28;20192;-79
2022/11/07 03:29:09;;;;;;;14.80;14.00;;;11.20;99.90;;;;;;5003931;28;20192;-79
2022/11/07 03:31:35;;;;;;;13.60;12.90;;;11.20;99.90;;;;;;5002318;28;20254;-78
2022/11/07 03:34:01;;;;;;;13.43;12.83;;;11.20;99.90;;;;;;4999494;28;20187;-79
2022/11/07 03:36:27;;;;;;;13.23;12.50;;;11.20;99.90;;;;;;4998344;28;20199;-79
2022/11/07 03:38:52;;;;;;;12.77;12.17;;;11.30;99.90;;;;;;4991814;28;20204;-78
2022/11/07 03:41:18;;;;;;;10.97;10.47;;;11.30;99.90;;;;;;4980186;28;20182;-77
2022/11/07 03:43:44;;;;;;;11.70;10.90;;;11.30;99.90;;;;;;4986941;28;20563;-77
2022/11/07 03:46:11;;;;;;;9.90;9.50;;;11.30;99.90;;;;;;4986450;28;20216;-77
2022/11/07 03:48:37;;;;;;;9.63;9.23;;;11.30;99.90;;;;;;4990414;28;20203;-79
2022/11/07 03:51:04;;;;;;;10.80;10.20;;;11.30;99.90;;;;;;5003120;28;20187;-78
2022/11/07 03:53:30;;;;;;;9.77;9.27;;;11.30;99.90;;;;;;5005112;28;20509;-78
2022/11/07 03:55:57;;;;;;;11.43;10.87;;;11.40;99.90;;;;;;5002217;28;20222;-78
2022/11/07 03:58:24;;;;;;;13.33;12.53;;;11.40;99.90;;;;;;5000223;28;20633;-79
2022/11/07 04:00:50;;;;;;;12.57;11.87;;;11.40;99.90;;;;;;5001294;28;20887;-79
2022/11/07 04:03:16;;;;;;;14.77;14.07;;;11.30;99.90;;;;;;5003116;28;20192;-77
2022/11/07 04:05:42;;;;;;;15.53;14.70;;;11.30;99.90;;;;;;5006229;28;20209;-78
2022/11/07 04:08:08;;;;;;;15.53;14.73;;;11.20;99.90;;;;;;5002083;28;20200;-79
2022/11/07 04:10:33;;;;;;;15.27;14.37;;;11.20;99.90;;;;;;4983746;28;20185;-78
2022/11/07 04:18:29;;;;;;;9.17;8.80;;;11.10;99.90;;;;;;4989703;28;20275;-79
2022/11/07 04:20:55;;;;;;;10.23;9.63;;;11.10;99.90;;;;;;4997629;28;20180;-77
2022/11/07 04:23:21;;;;;;;10.87;10.37;;;11.20;99.90;;;;;;4980365;28;20226;-78
2022/11/07 04:28:31;;;;;;;10.53;9.93;;;11.20;99.90;;;;;;4984117;28;20200;-78
2022/11/07 04:30:57;;;;;;;11.27;10.57;;;11.20;99.90;;;;;;4993987;28;20196;-77
2022/11/07 04:33:23;;;;;;;13.90;13.10;;;11.20;99.90;;;;;;4997168;28;20187;-78
2022/11/07 04:35:48;;;;;;;13.50;12.73;;;11.30;99.90;;;;;;4992859;28;20656;-77
2022/11/07 04:38:14;;;;;;;19.47;18.53;;;11.30;99.90;;;;;;4990791;28;20206;-77
2022/11/07 04:40:40;;;;;;;30.53;29.03;;;11.30;99.90;;;;;;4972231;28;20642;-78
2022/11/07 04:43:09;;;;;;;36.23;34.37;;;11.30;99.90;;;;;;4974004;28;20192;-78
2022/11/07 04:45:38;;;;;;;41.53;39.40;;;11.30;99.90;;;;;;4975646;28;20185;-78
2022/11/07 04:48:04;;;;;;;42.13;40.07;;;11.30;99.90;;;;;;4975725;28;20589;-77
2022/11/07 04:50:30;;;;;;;42.93;40.77;;;11.30;99.90;;;;;;4999070;28;20214;-78
2022/11/07 04:52:57;;;;;;;40.60;38.23;;;11.30;99.90;;;;;;5000340;28;20287;-76
2022/11/07 04:55:25;;;;;;;46.13;43.97;;;11.30;99.90;;;;;;5003265;28;20187;-77
2022/11/07 04:57:51;;;;;;;60.63;57.67;;;11.30;99.90;;;;;;5002713;28;20223;-77
2022/11/07 05:00:19;;;;;;;65.00;61.87;;;11.20;99.90;;;;;;4985022;28;20189;-78
2022/11/07 05:02:45;;;;;;;67.43;64.20;;;11.20;99.90;;;;;;4981639;28;20691;-78
2022/11/07 05:05:11;;;;;;;61.03;58.13;;;11.20;99.90;;;;;;4981748;28;20260;-78
2022/11/07 05:07:38;;;;;;;48.93;46.63;;;11.30;99.90;;;;;;4982805;28;20276;-77
2022/11/07 05:10:06;;;;;;;48.87;46.30;;;11.30;99.90;;;;;;4997296;28;20237;-78
2022/11/07 05:12:34;;;;;;;44.23;42.00;;;11.20;99.90;;;;;;5001687;28;20220;-78
2022/11/07 05:15:00;;;;;;;42.77;40.60;;;11.20;99.90;;;;;;5000372;28;20191;-79
2022/11/07 05:17:26;;;;;;;37.83;35.97;;;11.20;99.90;;;;;;4998986;28;20745;-78
2022/11/07 05:19:51;;;;;;;16.50;15.70;;;11.10;99.90;;;;;;4985991;28;20177;-78
2022/11/07 05:25:02;;;;;;;12.53;11.70;;;11.10;99.90;;;;;;4981423;28;20280;-78
2022/11/07 05:27:28;;;;;;;12.40;11.73;;;11.10;99.90;;;;;;4978224;28;20205;-78
2022/11/07 05:29:53;;;;;;;10.20;9.67;;;11.00;99.90;;;;;;4991568;28;20596;-77
2022/11/07 05:32:19;;;;;;;12.57;11.67;;;11.00;99.90;;;;;;4991917;28;20307;-77
2022/11/07 05:34:45;;;;;;;10.13;9.43;;;11.00;99.90;;;;;;4995947;28;20191;-77
2022/11/07 05:37:12;;;;;;;9.93;9.10;;;10.90;99.90;;;;;;4999891;28;20269;-78
2022/11/07 05:39:38;;;;;;;7.50;7.13;;;10.80;99.90;;;;;;4990113;28;20804;-77
2022/11/07 05:42:04;;;;;;;9.80;9.00;;;10.80;99.90;;;;;;4979943;28;20428;-76
2022/11/07 05:44:30;;;;;;;9.03;8.63;;;10.80;99.90;;;;;;4981943;28;20200;-78
2022/11/07 05:46:57;;;;;;;9.50;9.00;;;10.80;99.90;;;;;;4980088;28;20248;-79
2022/11/07 05:49:24;;;;;;;12.23;10.93;;;10.80;99.90;;;;;;4987333;28;20208;-78
2022/11/07 05:51:49;;;;;;;17.47;15.93;;;10.80;99.90;;;;;;5007376;28;20235;-78
2022/11/07 05:54:15;;;;;;;21.40;20.13;;;10.80;99.90;;;;;;5001373;28;20187;-80
2022/11/07 05:56:42;;;;;;;21.30;20.03;;;10.70;99.90;;;;;;4998813;28;20211;-76
2022/11/07 05:59:09;;;;;;;22.03;20.73;;;10.70;99.90;;;;;;4981021;28;20242;-76
2022/11/07 06:01:35;;;;;;;18.57;17.33;;;10.80;99.90;;;;;;4973996;28;20197;-76
2022/11/07 06:04:05;;;;;;;13.27;12.33;;;10.70;99.90;;;;;;4986510;28;20192;-76
2022/11/07 06:06:30;;;;;;;7.73;7.17;;;10.70;99.90;;;;;;4985481;28;20180;-76
2022/11/07 06:08:57;;;;;;;6.80;5.70;;;10.70;99.90;;;;;;4965886;28;20228;-75
2022/11/07 06:11:22;;;;;;;7.10;6.63;;;10.70;99.90;;;;;;4985788;28;20708;-76
2022/11/07 06:13:48;;;;;;;7.40;6.80;;;10.70;99.90;;;;;;4986377;28;20262;-76
2022/11/07 06:16:14;;;;;;;7.53;6.87;;;10.60;99.90;;;;;;4986436;28;20200;-76
2022/11/07 06:18:40;;;;;;;7.90;7.20;;;10.70;99.90;;;;;;4967960;28;20229;-76
2022/11/07 06:21:06;;;;;;;7.47;6.77;;;10.60;99.90;;;;;;4968449;28;20182;-76
2022/11/07 06:23:32;;;;;;;7.90;7.40;;;10.70;99.90;;;;;;4967123;28;20177;-76
2022/11/07 06:25:58;;;;;;;9.20;8.70;;;10.70;99.90;;;;;;4967102;28;20268;-76
2022/11/07 06:28:24;;;;;;;11.20;10.47;;;10.70;99.90;;;;;;4986414;28;20295;-76
2022/11/07 06:30:50;;;;;;;11.17;10.23;;;10.70;99.90;;;;;;4989989;28;20228;-76
2022/11/07 06:33:17;;;;;;;10.23;9.53;;;10.80;99.90;;;;;;4990890;28;20223;-77
2022/11/07 06:35:44;;;;;;;12.40;11.60;;;10.70;99.90;;;;;;4991088;28;20173;-75
2022/11/07 06:38:11;;;;;;;11.03;10.43;;;10.70;99.90;;;;;;4981883;28;20200;-75
2022/11/07 06:40:39;;;;;;;11.33;10.63;;;10.70;99.90;;;;;;4991451;28;20645;-75
2022/11/07 06:43:16;;;;;;;12.70;12.10;;;10.80;99.90;;;;;;4991196;28;20183;-76
2022/11/07 06:45:43;;;;;;;12.27;11.60;;;10.90;99.90;;;;;;4995711;28;20232;-75
2022/11/07 06:48:10;;;;;;;14.00;13.03;;;10.90;99.90;;;;;;4973034;28;20205;-76
2022/11/07 06:50:36;;;;;;;13.73;12.87;;;10.90;99.90;;;;;;4970065;28;20185;-75
2022/11/07 06:53:12;;;;;;;14.70;13.90;;;10.90;99.90;;;;;;4969797;28;20810;-76
2022/11/07 06:55:38;;;;;;;13.27;12.50;;;10.90;99.90;;;;;;4970101;28;20563;-76
2022/11/07 06:58:05;;;;;;;14.37;13.53;;;11.00;99.90;;;;;;4984606;28;20224;-77
2022/11/07 07:00:33;;;;;;;12.30;11.57;;;11.00;99.90;;;;;;4989057;28;20195;-75
2022/11/07 07:02:59;;;;;;;11.93;11.33;;;11.00;99.90;;;;;;4989477;28;20192;-76
2022/11/07 07:05:25;;;;;;;14.87;13.77;;;11.00;99.90;;;;;;4990524;28;20188;-76
2022/11/07 07:07:52;;;;;;;14.43;13.63;;;11.00;99.90;;;;;;4988210;28;20274;-76
2022/11/07 07:10:18;;;;;;;10.37;9.50;;;11.10;99.90;;;;;;4989360;28;20608;-77
2022/11/07 07:12:44;;;;;;;8.90;8.37;;;11.20;99.90;;;;;;4989682;28;20208;-76
2022/11/07 07:15:09;;;;;;;9.20;8.60;;;11.20;99.90;;;;;;4987303;28;20232;-77
2022/11/07 07:17:35;;;;;;;7.07;5.93;;;11.40;99.90;;;;;;4970980;28;20684;-76
2022/11/07 07:20:01;;;;;;;6.77;6.27;;;11.40;99.90;;;;;;4986181;28;20188;-77
2022/11/07 07:22:27;;;;;;;7.50;6.80;;;11.50;99.90;;;;;;4990260;28;20191;-76
2022/11/07 07:24:53;;;;;;;9.40;8.57;;;11.70;99.90;;;;;;4991870;28;20184;-75
2022/11/07 07:27:19;;;;;;;20.03;18.87;;;11.80;99.90;;;;;;4971021;28;20212;-73
2022/11/07 07:29:46;;;;;;;20.57;19.37;;;12.10;99.90;;;;;;4970752;28;20191;-73
2022/11/07 07:32:12;;;;;;;13.07;12.30;;;12.40;99.90;;;;;;4970311;28;20597;-74
2022/11/07 07:34:37;;;;;;;12.83;12.07;;;12.70;99.90;;;;;;4970489;28;20188;-74
2022/11/07 07:37:03;;;;;;;19.87;18.77;;;12.90;99.90;;;;;;4987369;28;20226;-73
2022/11/07 07:39:30;;;;;;;22.20;21.00;;;13.10;99.90;;;;;;4989506;28;20231;-74
2022/11/07 07:41:56;;;;;;;12.13;11.53;;;13.30;99.90;;;;;;4990087;28;20188;-74
2022/11/07 07:44:22;;;;;;;9.40;8.53;;;13.50;99.90;;;;;;4991120;28;20235;-75
2022/11/07 07:46:48;;;;;;;7.07;6.70;;;13.50;99.90;;;;;;4982808;28;20203;-75
2022/11/07 07:49:14;;;;;;;5.53;5.03;;;13.50;99.90;;;;;;4974632;28;20265;-75
2022/11/07 07:51:39;;;;;;;5.60;5.10;;;13.50;99.90;;;;;;4986855;28;20285;-75
2022/11/07 07:54:05;;;;;;;4.17;3.97;;;13.50;99.90;;;;;;4989422;28;20314;-75
2022/11/07 07:56:31;;;;;;;5.13;4.40;;;13.60;99.90;;;;;;4988384;28;20183;-76
2022/11/07 07:58:57;;;;;;;6.33;5.83;;;13.70;99.90;;;;;;4988562;28;20211;-76
2022/11/07 08:01:23;;;;;;;8.23;7.63;;;13.80;99.90;;;;;;4990451;28;20704;-76
2022/11/07 08:03:48;;;;;;;20.03;18.80;;;14.00;99.90;;;;;;4989493;28;20203;-75
2022/11/07 08:06:15;;;;;;;15.83;14.87;;;14.20;99.90;;;;;;4989982;28;20188;-77
2022/11/07 08:08:41;;;;;;;12.00;11.03;;;14.40;99.90;;;;;;4988046;28;20215;-76
2022/11/07 08:11:08;;;;;;;9.13;8.33;;;14.60;99.90;;;;;;4987971;28;20184;-76
2022/11/07 08:13:35;;;;;;;9.33;7.90;;;14.80;99.90;;;;;;4987765;28;20807;-75
2022/11/07 08:16:03;;;;;;;16.53;15.63;;;14.90;99.90;;;;;;4988263;28;20633;-77
2022/11/07 08:18:29;;;;;;;24.30;22.93;;;15.00;99.90;;;;;;4971282;28;20287;-76
2022/11/07 08:20:55;;;;;;;22.00;20.90;;;15.10;99.90;;;;;;4969376;28;20273;-76
2022/11/07 08:23:22;;;;;;;12.60;11.63;;;15.30;99.90;;;;;;4970453;28;20201;-73
2022/11/07 08:25:50;;;;;;;8.27;7.70;;;15.60;99.90;;;;;;4970042;28;20192;-75
2022/11/07 08:28:17;;;;;;;6.50;6.03;;;15.60;99.90;;;;;;4984306;28;20218;-75
2022/11/07 08:30:42;;;;;;;6.30;5.37;;;15.50;99.90;;;;;;4989065;28;20188;-74
2022/11/07 08:33:08;;;;;;;5.30;4.90;;;15.40;99.90;;;;;;4987716;28;20216;-75
2022/11/07 08:35:34;;;;;;;5.67;4.80;;;15.30;99.90;;;;;;4987720;28;20181;-75
2022/11/07 08:38:00;;;;;;;5.30;5.00;;;15.40;99.90;;;;;;4974311;28;20204;-75
2022/11/07 08:40:26;;;;;;;11.60;10.77;;;15.50;99.90;;;;;;4990911;28;20575;-78
2022/11/07 08:42:52;;;;;;;14.97;13.93;;;15.50;99.90;;;;;;4993067;28;20195;-78
2022/11/07 08:45:18;;;;;;;19.00;17.83;;;15.40;99.90;;;;;;4993070;28;20188;-80
2022/11/07 08:47:43;;;;;;;18.33;17.37;;;15.30;99.90;;;;;;4991222;28;20261;-79
2022/11/07 08:50:09;;;;;;;18.90;17.63;;;15.20;99.90;;;;;;4974884;28;20185;-78
2022/11/07 08:52:35;;;;;;;18.77;17.43;;;15.20;99.90;;;;;;4972794;28;20205;-78
2022/11/07 08:55:03;;;;;;;19.80;18.87;;;15.10;99.90;;;;;;4971537;28;20177;-75
2022/11/07 08:57:28;;;;;;;23.67;22.47;;;15.10;99.90;;;;;;4976850;28;20684;-77
2022/11/07 09:00:04;;;;;;;20.43;19.23;;;14.90;99.90;;;;;;4987806;28;20793;-76
2022/11/07 09:02:30;;;;;;;23.37;21.87;;;14.80;99.90;;;;;;4988719;28;20573;-76
2022/11/07 09:04:55;;;;;;;13.73;12.90;;;14.70;99.90;;;;;;4990221;28;20184;-77
2022/11/07 09:07:21;;;;;;;8.47;7.03;;;14.70;99.90;;;;;;5031552;28;20212;-77
2022/11/07 09:09:47;;;;;;;7.27;6.57;;;14.80;99.90;;;;;;4967931;28;20258;-77
2022/11/07 09:12:13;;;;;;;14.40;13.67;;;14.90;99.90;;;;;;4968706;28;20209;-79
2022/11/07 09:14:38;;;;;;;21.90;20.60;;;15.10;99.90;;;;;;4974614;28;20207;-77
2022/11/07 09:17:04;;;;;;;19.93;18.77;;;15.30;99.90;;;;;;4972295;28;20688;-79
2022/11/07 09:19:30;;;;;;;18.87;17.60;;;15.50;99.90;;;;;;4979487;28;20181;-79
2022/11/07 09:21:56;;;;;;;23.83;22.43;;;15.80;99.90;;;;;;4988273;28;20181;-78
2022/11/07 09:24:22;;;;;;;25.03;23.33;;;15.90;99.90;;;;;;4985806;28;20265;-78
2022/11/07 09:26:48;;;;;;;23.07;21.57;;;15.90;99.90;;;;;;4985377;28;20193;-80
2022/11/07 09:29:14;;;;;;;13.87;12.97;;;15.90;99.90;;;;;;4969779;28;20185;-79
2022/11/07 09:31:40;;;;;;;11.27;10.33;;;16.00;99.90;;;;;;4971110;28;20228;-78
2022/11/07 09:34:06;;;;;;;7.37;6.80;;;16.30;99.90;;;;;;4971732;28;20272;-78
2022/11/07 09:36:32;;;;;;;12.37;11.57;;;16.30;99.90;;;;;;4979955;28;20192;-76
2022/11/07 09:38:59;;;;;;;19.00;17.67;;;16.30;99.90;;;;;;4983619;28;20257;-76
2022/11/07 09:41:44;;;;;;;31.50;29.80;;;16.40;99.90;;;;;;4987591;28;20184;-75
2022/11/07 09:44:41;;;;;;;32.50;30.87;;;16.50;99.90;;;;;;4988431;28;20608;-76
2022/11/07 09:47:18;;;;;;;29.90;28.27;;;16.60;99.90;;;;;;4980954;28;20212;-77
2022/11/07 09:49:58;;;;;;;34.43;32.63;;;16.60;99.90;;;;;;4969690;28;20295;-77
2022/11/07 09:52:30;;;;;;;34.90;33.13;;;16.60;99.90;;;;;;4968833;28;20205;-77
2022/11/07 09:55:06;;;;;;;37.47;35.53;;;16.60;99.90;;;;;;4969219;28;20642;-76
2022/11/07 09:57:34;;;;;;;36.90;35.10;;;16.50;99.90;;;;;;4976915;28;20832;-77
2022/11/07 10:00:10;;;;;;;40.70;37.70;;;16.60;99.90;;;;;;4989964;28;20275;-77
2022/11/07 10:02:42;;;;;;;38.70;36.70;;;16.50;99.90;;;;;;4990920;28;20192;-78
2022/11/07 10:05:23;;;;;;;31.13;29.37;;;16.70;99.90;;;;;;4995997;28;20273;-79
2022/11/07 10:07:55;;;;;;;29.70;28.10;;;16.60;99.90;;;;;;4987462;28;20253;-77
2022/11/07 10:10:44;;;;;;;31.40;29.80;;;16.50;99.90;;;;;;4994355;28;20184;-77
2022/11/07 10:13:36;;;;;;;38.03;35.90;;;16.60;99.90;;;;;;4991453;28;20212;-78
2022/11/07 10:16:08;;;;;;;38.43;36.63;;;16.60;99.90;;;;;;4996350;28;20181;-78
2022/11/07 10:19:05;;;;;;;43.20;40.57;;;16.80;99.90;;;;;;5009923;28;20192;-79
2022/11/07 10:22:08;;;;;;;36.23;34.10;;;16.70;99.90;;;;;;5012254;28;20189;-79
2022/11/07 10:24:46;;;;;;;30.77;29.17;;;16.80;99.90;;;;;;4997964;28;20241;-81
2022/11/07 10:27:12;;;;;;;40.13;38.10;;;16.80;99.90;;;;;;4987222;28;20287;-78
2022/11/07 10:29:52;;;;;;;37.53;35.43;;;16.70;99.90;;;;;;4971768;28;20229;-78
2022/11/07 10:32:38;;;;;;;37.97;35.97;;;16.70;99.90;;;;;;4973997;28;20290;-80
2022/11/07 10:35:30;;;;;;;33.73;32.03;;;16.80;99.90;;;;;;4972845;28;20224;-78
2022/11/07 10:37:59;;;;;;;23.20;21.53;;;16.70;99.90;;;;;;4981770;28;20221;-78
2022/11/07 10:40:37;;;;;;;21.33;20.33;;;16.80;99.90;;;;;;4987329;28;20217;-77
2022/11/07 10:43:07;;;;;;;18.07;16.97;;;17.00;99.90;;;;;;4979317;28;20188;-79
2022/11/07 10:45:36;;;;;;;19.63;18.47;;;16.80;99.90;;;;;;4993556;28;20657;-79
2022/11/07 10:48:03;;;;;;;20.30;18.70;;;16.60;99.90;;;;;;5050075;28;20201;-74
2022/11/07 10:50:30;;;;;;;17.63;16.73;;;16.70;99.90;;;;;;5090661;28;20189;-73
2022/11/07 10:52:58;;;;;;;22.60;21.23;;;16.60;99.90;;;;;;5092527;28;20200;-73
2022/11/07 10:55:40;;;;;;;23.83;22.47;;;16.80;99.90;;;;;;5093312;28;20177;-73
2022/11/07 10:58:06;;;;;;;23.03;21.77;;;17.10;99.90;;;;;;5021373;28;20216;-77
2022/11/07 11:00:36;;;;;;;14.10;13.27;;;17.40;99.90;;;;;;4977455;28;20665;-76
2022/11/07 11:03:02;;;;;;;13.93;13.00;;;17.40;99.90;;;;;;4987525;28;20205;-69
2022/11/07 11:05:39;;;;;;;12.47;11.30;;;17.80;99.90;;;;;;4978843;28;20195;-69
2022/11/07 11:08:13;;;;;;;11.30;10.53;;;18.20;99.90;;;;;;4970832;28;20216;-72
2022/11/07 11:10:39;;;;;;;11.03;10.37;;;18.20;99.90;;;;;;4971041;28;20292;-73
2022/11/07 11:13:08;;;;;;;11.57;10.87;;;18.40;99.90;;;;;;4977322;28;20200;-70
2022/11/07 11:15:44;;;;;;;11.33;10.63;;;18.60;99.90;;;;;;4990021;28;20226;-73
2022/11/07 11:18:16;;;;;;;12.43;11.50;;;18.70;99.90;;;;;;4981339;28;20623;-70
2022/11/07 11:20:43;;;;;;;9.80;8.80;;;18.20;99.90;;;;;;4970486;28;20181;-70
2022/11/07 11:23:36;;;;;;;11.80;10.63;;;17.90;99.90;;;;;;4977742;28;20267;-70
2022/11/07 11:26:06;;;;;;;9.20;8.40;;;17.80;99.90;;;;;;4999793;28;20211;-79
2022/11/07 11:28:44;;;;;;;8.33;7.53;;;17.80;99.90;;;;;;4992180;28;20204;-79
2022/11/07 11:31:24;;;;;;;12.17;11.23;;;17.90;99.90;;;;;;4994584;28;20214;-79
2022/11/07 11:34:16;;;;;;;13.13;12.17;;;18.60;99.90;;;;;;4986567;28;20215;-78
2022/11/07 11:36:50;;;;;;;11.50;6.97;;;19.30;99.90;;;;;;4974876;28;20281;-80
2022/11/07 11:39:27;;;;;;;7.57;5.93;;;20.20;99.90;;;;;;4972985;28;20203;-80
2022/11/07 11:41:56;;;;;;;7.23;6.70;;;20.20;99.90;;;;;;4975512;28;20254;-79
2022/11/07 11:44:39;;;;;;;12.87;11.87;;;19.90;99.90;;;;;;4985907;28;20185;-79
2022/11/07 11:47:35;;;;;;;11.17;10.27;;;19.90;99.90;;;;;;4975948;28;20205;-80
2022/11/07 11:50:20;;;;;;;19.67;18.60;;;19.60;99.90;;;;;;4974920;28;20185;-80
2022/11/07 11:52:46;;;;;;;18.77;17.73;;;19.40;99.90;;;;;;4979420;28;20758;-80
2022/11/07 11:55:14;;;;;;;18.03;17.00;;;19.30;99.90;;;;;;4993485;28;20233;-80
2022/11/07 11:58:04;;;;;;;15.13;14.33;;;19.40;99.90;;;;;;4993012;28;20299;-80
2022/11/07 12:00:37;;;;;;;17.03;15.67;;;19.10;99.90;;;;;;4995191;28;20710;-79
2022/11/07 12:03:17;;;;;;;11.30;10.40;;;18.80;99.90;;;;;;4990493;28;20667;-80
2022/11/07 12:05:51;;;;;;;10.47;9.77;;;18.20;99.90;;;;;;4974064;28;20705;-80
2022/11/07 12:08:34;;;;;;;8.20;7.57;;;17.90;99.90;;;;;;4972601;28;20230;-81
2022/11/07 12:11:19;;;;;;;8.00;7.17;;;17.60;99.90;;;;;;4972412;28;20189;-81
2022/11/07 12:14:07;;;;;;;10.90;10.40;;;17.50;99.90;;;;;;4981152;28;20188;-79
2022/11/07 12:17:02;;;;;;;14.40;13.30;;;17.30;99.90;;;;;;4983526;28;20613;-77
2022/11/07 12:19:29;;;;;;;15.00;14.20;;;17.20;99.90;;;;;;4987549;28;20196;-77
2022/11/07 12:22:17;;;;;;;15.10;14.17;;;17.10;99.90;;;;;;4989187;28;20180;-78
2022/11/07 12:25:22;;;;;;;16.70;15.43;;;17.10;99.90;;;;;;4971911;28;20185;-78
2022/11/07 12:28:20;;;;;;;16.67;15.70;;;16.90;99.90;;;;;;4970670;28;20603;-80
2022/11/07 12:30:46;;;;;;;17.47;16.37;;;16.90;99.90;;;;;;4970898;28;20196;-79
2022/11/07 12:33:36;;;;;;;22.50;21.13;;;16.90;99.90;;;;;;4976757;28;20200;-80
2022/11/07 12:36:38;;;;;;;15.47;14.40;;;17.00;99.90;;;;;;4991129;28;20188;-80
2022/11/07 12:39:29;;;;;;;15.33;14.20;;;17.10;99.90;;;;;;4991704;28;20207;-80
2022/11/07 12:42:29;;;;;;;16.97;15.97;;;17.00;99.90;;;;;;5029136;28;20170;-80
2022/11/07 12:45:30;;;;;;;15.27;14.47;;;17.00;99.90;;;;;;5076467;28;20254;-81
2022/11/07 12:48:02;;;;;;;14.10;13.17;;;16.90;99.90;;;;;;4993354;28;20639;-81
2022/11/07 12:50:43;;;;;;;13.47;12.67;;;16.90;99.90;;;;;;4974070;28;20822;-81
2022/11/07 12:53:19;;;;;;;22.23;21.07;;;17.10;99.90;;;;;;4986045;28;20235;-79
2022/11/07 12:55:48;;;;;;;12.90;12.00;;;17.20;99.90;;;;;;4983725;28;20189;-80
2022/11/07 12:58:22;;;;;;;16.03;14.83;;;17.20;99.90;;;;;;5001523;28;20239;-82
2022/11/07 13:00:49;;;;;;;13.43;12.40;;;17.30;99.90;;;;;;5094669;28;20184;-79